Time;durP1;ratioP1;P1;durP2;ratioP2;P2;SDS_P1;SDS_P2;PMS_P1;PMS_P2;Temp;Humidity;BMP_temperature;BMP_pressure;BME280_temperature;BME280_humidity;BME280_pressure;Samples;Min_cycle;Max_cycle;Signal;HPM_P1;HPM_P2
2023/06/02 00:01:02;;;;;;;44.65;26.17;;;15.20;99.90;;;;;;5077042;28;20044;-66
2023/06/02 00:03:31;;;;;;;44.63;28.13;;;15.20;99.90;;;;;;5077255;28;20031;-66
2023/06/02 00:06:05;;;;;;;40.28;26.98;;;15.20;99.90;;;;;;5077237;28;20040;-66
2023/06/02 00:08:33;;;;;;;51.13;28.67;;;15.10;99.90;;;;;;5077301;28;20024;-66
2023/06/02 00:11:00;;;;;;;45.92;27.00;;;15.10;99.90;;;;;;5077167;28;20020;-66
2023/06/02 00:13:26;;;;;;;44.90;26.08;;;15.10;99.90;;;;;;5076817;28;20029;-66
2023/06/02 00:15:53;;;;;;;40.58;29.13;;;15.10;99.90;;;;;;5076976;28;20610;-66
2023/06/02 00:18:22;;;;;;;47.08;30.90;;;15.20;99.90;;;;;;5075857;28;20033;-66
2023/06/02 00:20:49;;;;;;;44.88;31.50;;;15.30;99.90;;;;;;5075646;28;20056;-66
2023/06/02 00:23:15;;;;;;;48.90;32.80;;;15.30;99.90;;;;;;5075611;28;20024;-66
2023/06/02 00:25:42;;;;;;;48.60;34.03;;;15.30;99.90;;;;;;5075724;28;20115;-66
2023/06/02 00:28:08;;;;;;;70.18;41.72;;;15.30;99.90;;;;;;5076804;28;20390;-66
2023/06/02 00:30:35;;;;;;;50.13;34.05;;;15.20;99.90;;;;;;5076879;28;20028;-66
2023/06/02 00:33:01;;;;;;;50.78;34.55;;;15.10;99.90;;;;;;5076928;28;20053;-66
2023/06/02 00:35:28;;;;;;;57.00;35.28;;;15.10;99.90;;;;;;5076646;28;20040;-66
2023/06/02 00:37:54;;;;;;;54.90;35.00;;;15.00;99.90;;;;;;5058591;28;20122;-66
2023/06/02 00:40:22;;;;;;;57.75;37.33;;;15.00;99.90;;;;;;5074952;28;20161;-66
2023/06/02 00:42:48;;;;;;;64.32;40.47;;;15.00;99.90;;;;;;5076632;28;20024;-66
2023/06/02 00:45:14;;;;;;;52.85;37.55;;;15.00;99.90;;;;;;5058579;28;20029;-66
2023/06/02 00:47:40;;;;;;;65.18;41.42;;;15.10;99.90;;;;;;5075096;28;20039;-66
2023/06/02 00:50:07;;;;;;;55.50;39.90;;;15.10;99.90;;;;;;5075150;28;20024;-66
2023/06/02 00:52:34;;;;;;;53.05;38.10;;;15.00;99.90;;;;;;5074972;28;20055;-66
2023/06/02 00:55:02;;;;;;;47.40;34.67;;;15.10;99.90;;;;;;5076340;28;20503;-66
2023/06/02 00:57:28;;;;;;;45.58;32.78;;;15.10;99.90;;;;;;5076075;28;20044;-66
2023/06/02 00:59:58;;;;;;;47.42;31.60;;;15.10;99.90;;;;;;5074969;28;20043;-66
2023/06/02 01:02:24;;;;;;;41.08;29.95;;;15.10;99.90;;;;;;5074929;28;20036;-66
2023/06/02 01:04:52;;;;;;;46.53;30.67;;;15.10;99.90;;;;;;5076158;28;20028;-66
2023/06/02 01:07:23;;;;;;;42.72;28.23;;;15.20;99.90;;;;;;5076225;28;20082;-66
2023/06/02 01:10:00;;;;;;;48.25;28.73;;;15.20;99.90;;;;;;5076062;28;20079;-66
2023/06/02 01:12:27;;;;;;;40.75;29.30;;;15.30;99.90;;;;;;5074753;28;20029;-67
2023/06/02 01:14:54;;;;;;;40.95;28.70;;;15.30;99.90;;;;;;5057917;28;20024;-67
2023/06/02 01:17:27;;;;;;;39.10;28.02;;;15.40;99.90;;;;;;5075986;28;20044;-67
2023/06/02 01:19:54;;;;;;;41.20;30.30;;;15.30;99.90;;;;;;5075633;28;20032;-67
2023/06/02 01:22:25;;;;;;;38.25;29.73;;;15.30;99.90;;;;;;5057932;28;20036;-67
2023/06/02 01:24:53;;;;;;;39.58;28.17;;;15.30;99.90;;;;;;5075788;28;20481;-67
2023/06/02 01:27:20;;;;;;;39.63;28.90;;;15.30;99.90;;;;;;5075731;28;20036;-67
2023/06/02 01:29:46;;;;;;;41.05;29.63;;;15.30;99.90;;;;;;5074460;28;20493;-67
2023/06/02 01:32:22;;;;;;;46.05;29.75;;;15.30;99.90;;;;;;5075547;28;20412;-67
2023/06/02 01:34:56;;;;;;;47.17;29.15;;;15.30;99.90;;;;;;5074038;28;20055;-67
2023/06/02 01:37:24;;;;;;;38.63;29.45;;;15.20;99.90;;;;;;5075699;28;20453;-67
2023/06/02 01:39:55;;;;;;;40.78;29.25;;;15.30;99.90;;;;;;5075400;28;20033;-67
2023/06/02 01:42:22;;;;;;;49.28;30.80;;;15.20;99.90;;;;;;5075470;28;20036;-67
2023/06/02 01:44:49;;;;;;;42.55;28.40;;;15.20;99.90;;;;;;5074121;28;20082;-67
2023/06/02 01:47:16;;;;;;;44.15;27.83;;;15.20;99.90;;;;;;5075294;28;20032;-67
2023/06/02 01:49:42;;;;;;;36.63;25.33;;;15.10;99.90;;;;;;5075127;28;20044;-67
2023/06/02 01:52:08;;;;;;;34.28;26.13;;;15.00;99.90;;;;;;5073060;28;20370;-67
2023/06/02 01:54:34;;;;;;;35.72;27.85;;;15.00;99.90;;;;;;5073857;28;20036;-67
2023/06/02 01:57:00;;;;;;;36.50;26.55;;;14.90;99.90;;;;;;5071942;28;20091;-66
2023/06/02 01:59:26;;;;;;;37.08;26.67;;;14.90;99.90;;;;;;5053762;28;20045;-67
2023/06/02 02:01:52;;;;;;;40.42;27.40;;;14.90;99.90;;;;;;5055086;28;20045;-67
2023/06/02 02:04:18;;;;;;;34.10;25.83;;;14.90;99.90;;;;;;5055208;28;20047;-67
2023/06/02 02:06:50;;;;;;;39.22;26.08;;;14.90;99.90;;;;;;5053782;28;20516;-67
2023/06/02 02:09:16;;;;;;;42.47;25.88;;;14.80;99.90;;;;;;5054894;28;20029;-67
2023/06/02 02:11:42;;;;;;;36.22;26.08;;;14.80;99.90;;;;;;5053432;28;20075;-67
2023/06/02 02:14:08;;;;;;;41.90;27.85;;;14.80;99.90;;;;;;5053737;28;20463;-67
2023/06/02 02:16:35;;;;;;;43.88;28.38;;;14.90;99.90;;;;;;5036973;28;20025;-67
2023/06/02 02:19:02;;;;;;;43.58;30.75;;;14.90;99.90;;;;;;5054980;28;20025;-66
2023/06/02 02:21:28;;;;;;;40.78;29.65;;;14.90;99.90;;;;;;5053447;28;20033;-67
2023/06/02 02:23:54;;;;;;;38.67;29.23;;;14.90;99.90;;;;;;5054701;28;20531;-67
2023/06/02 02:26:20;;;;;;;44.97;28.00;;;14.90;99.90;;;;;;5053374;28;20079;-67
2023/06/02 02:28:47;;;;;;;37.83;28.20;;;14.80;99.90;;;;;;5054640;28;20021;-67
2023/06/02 02:31:13;;;;;;;42.47;29.35;;;14.90;99.90;;;;;;5053470;28;20322;-67
2023/06/02 02:33:40;;;;;;;39.67;26.75;;;14.90;99.90;;;;;;5053342;28;20036;-67
2023/06/02 02:36:06;;;;;;;42.70;28.83;;;14.90;99.90;;;;;;5053166;28;20024;-67
2023/06/02 02:38:32;;;;;;;43.08;31.40;;;14.90;99.90;;;;;;5053286;28;20021;-67
2023/06/02 02:41:00;;;;;;;43.15;30.35;;;14.90;99.90;;;;;;5036570;28;20037;-67
2023/06/02 02:43:26;;;;;;;44.03;30.65;;;15.00;99.90;;;;;;5054299;28;20112;-67
2023/06/02 02:45:52;;;;;;;44.33;29.83;;;15.00;99.90;;;;;;5053285;28;20463;-66
2023/06/02 02:48:18;;;;;;;39.08;28.48;;;15.00;99.90;;;;;;5036475;28;20028;-67
2023/06/02 02:50:44;;;;;;;40.80;29.55;;;14.90;99.90;;;;;;5053146;28;20029;-67
2023/06/02 02:53:11;;;;;;;46.15;29.63;;;15.00;99.90;;;;;;5053134;28;20083;-67
2023/06/02 02:55:38;;;;;;;52.97;31.38;;;14.90;99.90;;;;;;5052965;28;20463;-66
2023/06/02 02:58:07;;;;;;;47.22;31.00;;;14.90;99.90;;;;;;5064975;28;20071;-67
2023/06/02 03:00:33;;;;;;;43.67;29.20;;;14.90;99.90;;;;;;5073111;28;20028;-67
2023/06/02 03:03:01;;;;;;;47.58;30.77;;;14.90;99.90;;;;;;5074711;28;20082;-67
2023/06/02 03:05:27;;;;;;;43.72;29.05;;;14.90;99.90;;;;;;5060425;28;20029;-67
2023/06/02 03:07:54;;;;;;;42.90;27.95;;;15.00;99.90;;;;;;5076998;28;20105;-67
2023/06/02 03:10:20;;;;;;;47.97;28.23;;;15.00;99.90;;;;;;5060253;28;20600;-67
2023/06/02 03:12:48;;;;;;;42.53;26.73;;;15.10;99.90;;;;;;5060553;28;20025;-67
2023/06/02 03:15:15;;;;;;;36.33;25.05;;;15.00;99.90;;;;;;5077014;28;20429;-67
2023/06/02 03:17:42;;;;;;;36.83;26.00;;;15.00;99.90;;;;;;5076973;28;20032;-67
2023/06/02 03:20:09;;;;;;;37.28;27.42;;;15.00;99.90;;;;;;5076930;28;20040;-67
2023/06/02 03:22:38;;;;;;;44.00;28.77;;;14.90;99.90;;;;;;5076851;28;20043;-67
2023/06/02 03:25:05;;;;;;;44.13;28.45;;;14.90;99.90;;;;;;5076714;28;20111;-67
2023/06/02 03:27:32;;;;;;;44.67;29.60;;;14.90;99.90;;;;;;5076675;28;20067;-67
2023/06/02 03:29:58;;;;;;;41.10;29.58;;;14.90;99.90;;;;;;5076852;28;20486;-67
2023/06/02 03:32:30;;;;;;;44.33;29.77;;;14.90;99.90;;;;;;5076768;28;20109;-67
2023/06/02 03:34:56;;;;;;;51.35;29.75;;;15.00;99.90;;;;;;5076471;28;20063;-67
2023/06/02 03:37:22;;;;;;;44.13;29.10;;;15.00;99.90;;;;;;5059679;28;20029;-67
2023/06/02 03:39:49;;;;;;;41.95;29.40;;;15.10;99.90;;;;;;5076488;28;20037;-67
2023/06/02 03:42:16;;;;;;;54.38;31.13;;;15.10;99.90;;;;;;5076468;28;20032;-67
2023/06/02 03:44:42;;;;;;;40.58;29.17;;;15.10;99.90;;;;;;5076350;28;20028;-67
2023/06/02 03:47:08;;;;;;;47.40;31.98;;;15.10;99.90;;;;;;5077427;28;20033;-67
2023/06/02 03:49:36;;;;;;;50.78;32.35;;;15.10;99.90;;;;;;5076197;28;20113;-67
2023/06/02 03:52:03;;;;;;;47.92;33.03;;;15.20;99.90;;;;;;5076270;28;20377;-67
2023/06/02 03:54:29;;;;;;;65.90;37.85;;;15.20;99.90;;;;;;5076183;28;20035;-67
2023/06/02 03:56:55;;;;;;;55.20;38.72;;;15.30;99.90;;;;;;5075807;28;20566;-67
2023/06/02 03:59:21;;;;;;;52.75;38.33;;;15.30;99.90;;;;;;5059405;28;20111;-67
2023/06/02 04:01:48;;;;;;;58.13;38.30;;;15.40;99.90;;;;;;5075930;28;20040;-67
2023/06/02 04:04:15;;;;;;;61.17;39.22;;;15.40;99.90;;;;;;5059410;28;20139;-67
2023/06/02 04:06:41;;;;;;;64.70;38.83;;;15.40;99.90;;;;;;5077038;28;20029;-67
2023/06/02 04:09:12;;;;;;;60.97;37.88;;;15.40;99.90;;;;;;5075731;28;20034;-67
2023/06/02 04:11:40;;;;;;;58.30;39.13;;;15.40;99.90;;;;;;5075934;28;20025;-67
2023/06/02 04:14:07;;;;;;;53.25;37.05;;;15.40;99.90;;;;;;5075113;28;20017;-67
2023/06/02 04:16:33;;;;;;;51.97;36.15;;;15.50;99.90;;;;;;5059390;28;20039;-67
2023/06/02 04:19:00;;;;;;;46.35;34.15;;;15.60;99.90;;;;;;5075673;28;20033;-67
2023/06/02 04:21:27;;;;;;;51.13;35.08;;;15.60;99.90;;;;;;5059163;28;20032;-67
2023/06/02 04:23:53;;;;;;;47.22;35.15;;;15.60;99.90;;;;;;5075581;28;20037;-67
2023/06/02 04:26:19;;;;;;;51.80;35.03;;;15.70;99.90;;;;;;5075443;28;20542;-67
2023/06/02 04:28:45;;;;;;;51.83;35.33;;;15.70;99.90;;;;;;5058851;28;20029;-67
2023/06/02 04:31:11;;;;;;;52.40;34.40;;;15.80;99.90;;;;;;5076607;28;20033;-67
2023/06/02 04:33:42;;;;;;;50.42;35.22;;;15.80;99.90;;;;;;5075246;28;20397;-67
2023/06/02 04:36:10;;;;;;;51.03;34.38;;;15.80;99.90;;;;;;5075518;28;20028;-67
2023/06/02 04:38:38;;;;;;;47.88;35.00;;;15.90;99.90;;;;;;5058822;28;20495;-67
2023/06/02 04:41:07;;;;;;;53.47;37.78;;;16.00;99.90;;;;;;5058825;28;20077;-67
2023/06/02 04:43:34;;;;;;;54.63;39.17;;;16.10;99.90;;;;;;5058888;28;20347;-67
2023/06/02 04:46:06;;;;;;;57.17;40.42;;;16.10;99.90;;;;;;5075092;28;20032;-66
2023/06/02 04:48:32;;;;;;;55.10;39.83;;;16.10;99.90;;;;;;5075155;28;20049;-66
2023/06/02 04:50:59;;;;;;;58.42;38.88;;;16.10;99.90;;;;;;5075058;28;20032;-66
2023/06/02 04:53:25;;;;;;;47.47;36.35;;;16.10;99.90;;;;;;5058179;28;20132;-66
2023/06/02 04:55:51;;;;;;;52.83;36.65;;;16.20;99.90;;;;;;5074850;28;20473;-67
2023/06/02 04:58:17;;;;;;;48.17;35.60;;;16.30;99.90;;;;;;5074843;28;20123;-66
2023/06/02 05:00:43;;;;;;;43.65;36.05;;;16.30;99.90;;;;;;5057930;28;20055;-66
2023/06/02 05:03:09;;;;;;;56.55;38.47;;;16.40;99.90;;;;;;5076184;28;20029;-67
2023/06/02 05:05:35;;;;;;;52.40;38.13;;;16.40;99.90;;;;;;5058149;28;20116;-66
2023/06/02 05:08:02;;;;;;;52.50;39.28;;;16.40;99.90;;;;;;5074698;28;20025;-66
2023/06/02 05:10:28;;;;;;;53.45;37.03;;;16.60;99.90;;;;;;5074625;28;20067;-66
2023/06/02 05:12:55;;;;;;;51.75;38.33;;;16.60;99.90;;;;;;5074655;28;20143;-66
2023/06/02 05:15:21;;;;;;;48.30;36.70;;;16.70;99.90;;;;;;5074573;28;20571;-66
2023/06/02 05:17:48;;;;;;;54.63;37.35;;;16.90;99.90;;;;;;5074541;28;20039;-66
2023/06/02 05:20:17;;;;;;;55.78;37.85;;;17.00;99.90;;;;;;5074432;28;20032;-66
2023/06/02 05:22:43;;;;;;;58.55;40.22;;;17.10;99.90;;;;;;5074434;28;20055;-66
2023/06/02 05:25:10;;;;;;;55.92;39.00;;;17.30;99.90;;;;;;5074527;28;20086;-66
2023/06/02 05:27:38;;;;;;;48.67;36.33;;;17.30;99.90;;;;;;5073419;28;20083;-66
2023/06/02 05:30:04;;;;;;;55.78;36.72;;;17.40;99.90;;;;;;5074328;28;20051;-66
2023/06/02 05:32:32;;;;;;;58.60;39.67;;;17.40;99.90;;;;;;5073349;28;20035;-66
2023/06/02 05:35:00;;;;;;;50.67;36.92;;;17.50;99.90;;;;;;5073273;28;20027;-66
2023/06/02 05:37:26;;;;;;;52.35;37.65;;;17.50;99.90;;;;;;5074289;28;20104;-66
2023/06/02 05:39:52;;;;;;;52.33;36.67;;;17.50;99.90;;;;;;5074038;28;20028;-66
2023/06/02 05:42:19;;;;;;;54.25;36.78;;;17.50;99.90;;;;;;5057447;28;20029;-66
2023/06/02 05:44:48;;;;;;;50.55;37.17;;;17.60;99.90;;;;;;5074091;28;20419;-66
2023/06/02 05:47:14;;;;;;;53.20;36.22;;;17.50;99.90;;;;;;5073823;28;20056;-66
2023/06/02 05:49:40;;;;;;;46.60;35.28;;;17.70;99.90;;;;;;5067051;28;20379;-66
2023/06/02 05:52:07;;;;;;;45.55;36.13;;;17.80;99.90;;;;;;5046346;28;20055;-66
2023/06/02 05:54:34;;;;;;;48.63;36.10;;;17.80;99.90;;;;;;5072436;28;20035;-66
2023/06/02 05:57:01;;;;;;;54.40;34.97;;;17.80;99.90;;;;;;5074708;28;20494;-66
2023/06/02 05:59:28;;;;;;;49.25;35.42;;;17.90;99.90;;;;;;5073676;28;20032;-66
2023/06/02 06:01:54;;;;;;;55.05;35.22;;;18.00;99.90;;;;;;5056571;28;20082;-67
2023/06/02 06:04:21;;;;;;;52.13;36.33;;;18.00;99.90;;;;;;5071662;28;20029;-66
2023/06/02 06:06:47;;;;;;;49.50;36.25;;;18.20;99.90;;;;;;5056906;28;20115;-66
2023/06/02 06:09:20;;;;;;;51.58;36.80;;;18.10;99.90;;;;;;5073477;28;20063;-66
2023/06/02 06:11:49;;;;;;;49.22;36.92;;;18.10;99.90;;;;;;5068518;28;20039;-66
2023/06/02 06:14:15;;;;;;;62.53;38.88;;;18.20;99.90;;;;;;5078598;28;20025;-66
2023/06/02 06:16:41;;;;;;;61.35;40.83;;;18.20;99.90;;;;;;5052850;28;20282;-66
2023/06/02 06:19:08;;;;;;;59.53;39.33;;;18.30;99.90;;;;;;5069562;28;20082;-66
2023/06/02 06:21:36;;;;;;;62.08;39.95;;;18.30;99.90;;;;;;5070312;28;20033;-67
2023/06/02 06:24:08;;;;;;;61.17;39.78;;;18.50;99.90;;;;;;5070370;28;20037;-66
2023/06/02 06:26:38;;;;;;;60.75;38.90;;;18.50;99.90;;;;;;5066115;28;20051;-66
2023/06/02 06:29:04;;;;;;;69.93;42.03;;;18.50;99.90;;;;;;5056540;28;20029;-66
2023/06/02 06:31:32;;;;;;;65.40;42.20;;;18.60;99.90;;;;;;5073063;28;20473;-66
2023/06/02 06:33:59;;;;;;;55.67;38.22;;;18.60;99.90;;;;;;5056524;28;20175;-66
2023/06/02 06:36:25;;;;;;;53.08;35.75;;;18.80;99.90;;;;;;5073272;28;20167;-66
2023/06/02 06:38:51;;;;;;;57.88;37.60;;;18.90;99.90;;;;;;5072198;28;20558;-66
2023/06/02 06:41:21;;;;;;;50.90;34.72;;;18.80;99.90;;;;;;5073294;28;20035;-66
2023/06/02 06:43:48;;;;;;;45.80;33.80;;;19.00;99.90;;;;;;5072712;28;20032;-66
2023/06/02 06:46:16;;;;;;;47.38;34.28;;;19.10;99.90;;;;;;5067257;28;20082;-66
2023/06/02 06:48:42;;;;;;;51.50;35.75;;;19.20;99.90;;;;;;5072513;28;20024;-66
2023/06/02 06:51:08;;;;;;;44.53;32.47;;;19.40;99.90;;;;;;5074449;28;20025;-66
2023/06/02 06:53:33;;;;;;;50.55;33.83;;;19.50;99.90;;;;;;5072044;28;20037;-66
2023/06/02 06:56:02;;;;;;;44.20;31.23;;;19.70;99.90;;;;;;5074681;28;20056;-66
2023/06/02 06:58:29;;;;;;;44.15;31.02;;;19.50;99.90;;;;;;5074745;28;20052;-67
2023/06/02 07:00:55;;;;;;;64.55;36.45;;;19.70;99.90;;;;;;5065456;28;20083;-66
2023/06/02 07:03:21;;;;;;;67.63;38.00;;;20.00;99.90;;;;;;5052918;28;20463;-66
2023/06/02 07:05:47;;;;;;;84.38;40.25;;;19.90;99.90;;;;;;5064424;28;20035;-67
2023/06/02 07:08:13;;;;;;;106.00;40.42;;;20.10;99.90;;;;;;5068468;28;20100;-67
2023/06/02 07:10:42;;;;;;;100.82;41.92;;;20.20;99.90;;;;;;5055969;28;20096;-67
2023/06/02 07:13:09;;;;;;;82.68;39.60;;;20.30;99.90;;;;;;5059505;28;20040;-67
2023/06/02 07:15:36;;;;;;;75.68;36.85;;;20.40;99.90;;;;;;5056886;28;20031;-67
2023/06/02 07:18:03;;;;;;;68.85;36.47;;;20.50;99.90;;;;;;5058041;28;20028;-66
2023/06/02 07:20:30;;;;;;;70.57;37.25;;;20.70;99.90;;;;;;5054079;28;20043;-66
2023/06/02 07:22:56;;;;;;;77.55;36.95;;;20.70;99.90;;;;;;5068523;28;20032;-67
2023/06/02 07:25:22;;;;;;;85.28;40.00;;;20.80;99.90;;;;;;5072238;28;20032;-67
2023/06/02 07:27:48;;;;;;;88.82;39.20;;;20.80;99.90;;;;;;5070321;28;20055;-66
2023/06/02 07:30:14;;;;;;;77.60;36.78;;;20.80;99.90;;;;;;5069775;28;20036;-67
2023/06/02 07:32:40;;;;;;;76.60;36.42;;;20.90;99.90;;;;;;5063289;28;20025;-67
2023/06/02 07:35:06;;;;;;;74.47;36.10;;;21.00;99.90;;;;;;5071088;28;20410;-67
2023/06/02 07:37:33;;;;;;;76.45;37.80;;;20.90;99.90;;;;;;5072440;28;20039;-67
2023/06/02 07:39:59;;;;;;;74.82;37.10;;;20.90;99.90;;;;;;5073717;28;20066;-67
2023/06/02 07:42:25;;;;;;;79.60;35.50;;;21.10;99.90;;;;;;5073350;28;20033;-67
2023/06/02 07:44:50;;;;;;;59.72;33.80;;;21.30;99.90;;;;;;5073647;28;20027;-67
2023/06/02 07:47:17;;;;;;;76.00;36.47;;;21.30;99.90;;;;;;5073772;28;20051;-67
2023/06/02 07:49:43;;;;;;;69.32;34.78;;;21.60;99.90;;;;;;5072663;28;20056;-67
2023/06/02 07:52:09;;;;;;;62.80;32.45;;;21.70;99.90;;;;;;5077150;28;20033;-67
2023/06/02 07:54:35;;;;;;;59.97;32.97;;;21.90;99.90;;;;;;5066254;28;20040;-67
2023/06/02 07:57:01;;;;;;;59.92;33.30;;;22.10;99.90;;;;;;5076593;28;20539;-67
2023/06/02 07:59:27;;;;;;;60.63;33.85;;;22.20;99.90;;;;;;5076696;28;20036;-67
2023/06/02 08:01:53;;;;;;;58.15;32.42;;;21.80;99.90;;;;;;5075062;28;20107;-67
2023/06/02 08:04:25;;;;;;;62.58;35.50;;;22.10;99.90;;;;;;5059327;28;20482;-67
2023/06/02 08:06:55;;;;;;;57.80;33.08;;;22.40;99.90;;;;;;5056834;28;20036;-67
2023/06/02 08:09:22;;;;;;;65.43;35.95;;;22.70;99.90;;;;;;5072043;28;20024;-67
2023/06/02 08:11:49;;;;;;;68.38;36.58;;;22.80;99.90;;;;;;5076679;28;20025;-67
2023/06/02 08:14:15;;;;;;;74.95;39.88;;;22.60;99.90;;;;;;5072199;28;20362;-67
2023/06/02 08:16:45;;;;;;;76.35;39.25;;;22.50;99.90;;;;;;5074473;28;20031;-67
2023/06/02 08:19:12;;;;;;;72.65;40.17;;;22.50;99.90;;;;;;5075473;28;20082;-67
2023/06/02 08:21:43;;;;;;;72.72;38.60;;;22.70;99.90;;;;;;5070217;28;20501;-67
2023/06/02 08:24:20;;;;;;;75.93;39.17;;;23.10;99.90;;;;;;5063231;28;20028;-67
2023/06/02 08:26:48;;;;;;;77.25;40.38;;;23.20;99.90;;;;;;5075923;28;20036;-67
2023/06/02 08:29:15;;;;;;;71.55;39.45;;;23.60;99.90;;;;;;5058418;28;20049;-67
2023/06/02 08:31:42;;;;;;;69.10;36.75;;;23.80;99.90;;;;;;5066662;28;20082;-67
2023/06/02 08:34:08;;;;;;;70.05;36.10;;;24.00;99.90;;;;;;5071935;28;20035;-66
2023/06/02 08:36:35;;;;;;;64.97;35.38;;;23.90;99.90;;;;;;5073740;28;20029;-66
2023/06/02 08:39:06;;;;;;;54.20;33.13;;;24.10;99.90;;;;;;5076113;28;20107;-66
2023/06/02 08:41:39;;;;;;;53.55;31.75;;;24.80;99.90;;;;;;5075190;28;20203;-66
2023/06/02 08:44:05;;;;;;;53.13;30.70;;;25.50;99.50;;;;;;5076204;28;20032;-66
2023/06/02 08:46:32;;;;;;;38.38;25.10;;;25.40;93.10;;;;;;5074322;28;20032;-66
2023/06/02 08:49:00;;;;;;;51.90;26.65;;;25.10;97.00;;;;;;5074281;28;20028;-66
2023/06/02 08:51:26;;;;;;;45.50;25.63;;;25.80;95.40;;;;;;5075293;28;20037;-66
2023/06/02 08:53:52;;;;;;;43.97;26.45;;;25.80;91.50;;;;;;5075926;28;20020;-66
2023/06/02 08:56:19;;;;;;;43.28;27.10;;;26.40;92.90;;;;;;5075718;28;20059;-66
2023/06/02 08:58:46;;;;;;;40.47;26.83;;;27.10;89.80;;;;;;5057590;28;20036;-66
2023/06/02 09:01:13;;;;;;;35.53;24.85;;;26.30;88.40;;;;;;5074397;28;20024;-66
2023/06/02 09:03:40;;;;;;;34.78;25.05;;;26.90;89.10;;;;;;5057988;28;20044;-66
2023/06/02 09:06:22;;;;;;;34.38;22.00;;;26.70;89.20;;;;;;5075413;28;20528;-66
2023/06/02 09:08:57;;;;;;;32.83;23.38;;;26.70;85.00;;;;;;5063880;28;20091;-66
2023/06/02 09:11:25;;;;;;;32.13;23.83;;;27.10;87.40;;;;;;5052359;28;20059;-66
2023/06/02 09:13:52;;;;;;;31.00;24.05;;;27.30;85.90;;;;;;5070877;28;20025;-66
2023/06/02 09:16:20;;;;;;;22.38;19.75;;;27.90;86.10;;;;;;5075838;28;20055;-67
2023/06/02 09:18:57;;;;;;;30.77;22.60;;;28.30;88.10;;;;;;5075565;28;20025;-67
2023/06/02 09:21:28;;;;;;;32.25;21.27;;;28.60;85.90;;;;;;5074470;28;20063;-66
2023/06/02 09:23:55;;;;;;;30.02;22.15;;;28.80;82.40;;;;;;5073913;28;20032;-66
2023/06/02 09:26:30;;;;;;;24.42;17.38;;;29.50;86.40;;;;;;5073756;28;20359;-66
2023/06/02 09:29:13;;;;;;;21.10;16.88;;;29.30;73.00;;;;;;5073440;28;20203;-66
2023/06/02 09:31:44;;;;;;;33.42;20.98;;;28.70;73.70;;;;;;5073425;28;20039;-66
2023/06/02 09:34:11;;;;;;;26.42;18.75;;;28.80;75.50;;;;;;5060506;28;20207;-66
2023/06/02 09:36:38;;;;;;;29.25;19.63;;;28.30;74.00;;;;;;5053658;28;20040;-66
2023/06/02 09:39:05;;;;;;;23.75;18.27;;;27.90;73.80;;;;;;5053542;28;20037;-67
2023/06/02 09:41:31;;;;;;;17.30;15.43;;;28.00;78.50;;;;;;5055428;28;20029;-67
2023/06/02 09:43:58;;;;;;;18.25;16.10;;;28.80;72.00;;;;;;5062230;28;20024;-66
2023/06/02 09:46:24;;;;;;;16.08;14.32;;;28.00;74.10;;;;;;5074757;28;20028;-67
2023/06/02 09:48:57;;;;;;;19.48;17.42;;;27.80;70.00;;;;;;5073501;28;20422;-67
2023/06/02 09:51:24;;;;;;;18.35;15.77;;;27.90;68.90;;;;;;5074810;28;20028;-66
2023/06/02 09:53:50;;;;;;;24.63;16.02;;;28.30;72.20;;;;;;5073402;28;20105;-67
2023/06/02 09:56:19;;;;;;;19.58;15.50;;;28.60;70.60;;;;;;5074914;28;20051;-67
2023/06/02 09:58:46;;;;;;;20.52;15.95;;;28.90;68.90;;;;;;5074513;28;20079;-67
2023/06/02 10:01:13;;;;;;;19.15;16.85;;;29.20;68.80;;;;;;5073275;28;20035;-67
2023/06/02 10:03:44;;;;;;;20.65;17.23;;;30.30;68.30;;;;;;5062718;28;20036;-67
2023/06/02 10:06:19;;;;;;;26.40;20.10;;;30.80;70.10;;;;;;5052730;28;20395;-67
2023/06/02 10:09:30;;;;;;;32.45;23.02;;;31.20;63.00;;;;;;5068808;28;20028;-67
2023/06/02 10:12:15;;;;;;;38.40;25.40;;;30.50;69.40;;;;;;5067489;28;20442;-67
2023/06/02 10:14:58;;;;;;;41.53;25.55;;;30.50;69.40;;;;;;5073847;28;20322;-66
2023/06/02 10:17:50;;;;;;;42.80;27.77;;;29.70;76.40;;;;;;5056178;28;20035;-66
2023/06/02 10:20:24;;;;;;;39.63;26.08;;;28.60;74.10;;;;;;5069718;28;20021;-66
2023/06/02 10:23:02;;;;;;;32.10;24.30;;;28.50;75.90;;;;;;5072989;28;20104;-66
2023/06/02 10:25:53;;;;;;;29.98;19.77;;;28.20;78.20;;;;;;5064378;28;20555;-66
2023/06/02 10:28:20;;;;;;;30.20;22.38;;;27.90;73.50;;;;;;5063608;28;20039;-66
2023/06/02 10:30:47;;;;;;;29.63;21.85;;;27.50;79.20;;;;;;5071525;28;20359;-66
2023/06/02 10:33:13;;;;;;;26.63;19.20;;;26.90;81.40;;;;;;5072575;28;20024;-66
2023/06/02 10:35:58;;;;;;;27.25;21.92;;;26.50;78.70;;;;;;5069113;28;20029;-66
2023/06/02 10:38:28;;;;;;;31.02;24.27;;;25.90;82.60;;;;;;5072505;28;20036;-66
2023/06/02 10:40:54;;;;;;;33.35;23.75;;;25.70;85.60;;;;;;5069882;28;20031;-66
2023/06/02 10:43:21;;;;;;;32.45;25.42;;;25.70;87.40;;;;;;5074488;28;20042;-66
2023/06/02 10:45:47;;;;;;;33.97;27.45;;;25.70;90.40;;;;;;5073949;28;20029;-66
2023/06/02 10:48:39;;;;;;;44.88;29.60;;;25.50;93.20;;;;;;5073877;28;20464;-66
2023/06/02 10:51:07;;;;;;;30.92;22.88;;;24.80;99.20;;;;;;5073862;28;20024;-66
2023/06/02 10:53:53;;;;;;;29.33;23.60;;;24.10;97.80;;;;;;5072829;28;20024;-66
2023/06/02 10:56:49;;;;;;;35.92;25.02;;;24.00;98.40;;;;;;5073764;28;20094;-66
2023/06/02 10:59:32;;;;;;;28.77;23.13;;;23.20;99.90;;;;;;5045198;28;20115;-66
2023/06/02 11:01:59;;;;;;;32.17;23.90;;;22.70;99.90;;;;;;5054173;28;20385;-66
2023/06/02 11:04:26;;;;;;;38.25;25.33;;;22.20;99.90;;;;;;5053960;28;20108;-66
2023/06/02 11:07:18;;;;;;;33.40;22.42;;;21.90;99.90;;;;;;5070255;28;20033;-66
2023/06/02 11:09:59;;;;;;;24.85;17.83;;;21.60;99.90;;;;;;5073923;28;20478;-66
2023/06/02 11:12:50;;;;;;;19.20;13.73;;;21.40;99.90;;;;;;5073986;28;20043;-66
2023/06/02 11:15:18;;;;;;;32.05;18.15;;;20.70;99.90;;;;;;5073010;28;20370;-66
2023/06/02 11:17:47;;;;;;;28.60;21.63;;;20.30;99.90;;;;;;5071579;28;20041;-66
2023/06/02 11:20:15;;;;;;;34.55;21.98;;;20.00;99.90;;;;;;5073948;28;20050;-66
2023/06/02 11:22:42;;;;;;;38.58;22.33;;;19.90;99.90;;;;;;5072570;28;20040;-66
2023/06/02 11:25:13;;;;;;;36.70;23.10;;;19.70;99.90;;;;;;5076036;28;20032;-66
2023/06/02 11:27:40;;;;;;;30.75;23.48;;;19.50;99.90;;;;;;5078429;28;20038;-66
2023/06/02 11:30:10;;;;;;;40.92;25.48;;;19.40;99.90;;;;;;5078332;28;20548;-66
2023/06/02 11:32:36;;;;;;;39.38;25.40;;;19.40;99.90;;;;;;5075190;28;20115;-66
2023/06/02 11:35:07;;;;;;;38.40;27.35;;;19.30;99.90;;;;;;5066855;28;20462;-66
2023/06/02 11:37:41;;;;;;;34.72;24.25;;;19.30;99.90;;;;;;5059603;28;20355;-66
2023/06/02 11:40:12;;;;;;;37.63;25.63;;;19.10;99.90;;;;;;5059871;28;20025;-66
2023/06/02 11:42:43;;;;;;;34.33;26.33;;;19.10;99.90;;;;;;5073339;28;20025;-66
2023/06/02 11:45:23;;;;;;;45.63;29.48;;;19.00;99.90;;;;;;5075596;28;20038;-66
2023/06/02 11:48:05;;;;;;;43.10;29.90;;;19.10;99.90;;;;;;5075790;28;20079;-66
2023/06/02 11:50:32;;;;;;;34.75;27.23;;;19.10;99.90;;;;;;5077442;28;20039;-66
2023/06/02 11:52:58;;;;;;;36.60;29.45;;;19.10;99.90;;;;;;5076771;28;20020;-66
2023/06/02 11:55:29;;;;;;;43.35;28.67;;;19.10;99.90;;;;;;5076786;28;20020;-66
2023/06/02 11:58:15;;;;;;;;;;;19.10;99.90;;;;;;5076171;28;20057;-66
2023/06/02 12:00:41;;;;;;;43.13;30.83;;;19.20;99.90;;;;;;5075396;28;19908;-66
2023/06/02 12:03:07;;;;;;;50.25;31.00;;;19.00;99.90;;;;;;5077109;28;20024;-66
2023/06/02 12:05:34;;;;;;;44.97;32.08;;;19.00;99.90;;;;;;5076682;28;20032;-66
2023/06/02 12:08:24;;;;;;;42.35;31.85;;;19.00;99.90;;;;;;5076907;28;20028;-66
2023/06/02 12:10:56;;;;;;;46.50;32.88;;;19.00;99.90;;;;;;5076299;28;20021;-65
2023/06/02 12:13:31;;;;;;;46.95;32.40;;;19.00;99.90;;;;;;5076048;28;20620;-65
2023/06/02 12:16:21;;;;;;;44.58;32.30;;;19.00;99.90;;;;;;5074354;28;20476;-65
2023/06/02 12:18:49;;;;;;;39.10;31.08;;;19.00;99.90;;;;;;5055633;28;20033;-65
2023/06/02 12:21:27;;;;;;;42.47;29.30;;;19.00;99.90;;;;;;5055535;28;20482;-65
2023/06/02 12:23:55;;;;;;;40.85;31.33;;;19.20;99.90;;;;;;5055426;28;20041;-65
2023/06/02 12:26:24;;;;;;;42.15;29.17;;;19.20;99.90;;;;;;5056925;28;20058;-65
2023/06/02 12:28:50;;;;;;;42.25;30.65;;;19.00;99.90;;;;;;5056044;28;20468;-65
2023/06/02 12:31:17;;;;;;;36.95;26.67;;;18.90;99.90;;;;;;5076147;28;20025;-65
2023/06/02 12:33:44;;;;;;;37.08;26.20;;;19.00;99.90;;;;;;5073662;28;20021;-65
2023/06/02 12:36:10;;;;;;;43.17;30.77;;;18.90;99.90;;;;;;5073502;28;20434;-65